sensor_id;sensor_type;location;lat;lon;timestamp;pressure;altitude;pressure_sealevel;temperature;humidity
77381;BME280;66439;50.106;10.996;2023-07-24T00:00:37;97950.84;;;20.93;48.43
77381;BME280;66439;50.106;10.996;2023-07-24T00:03:04;97955.73;;;20.90;48.41
77381;BME280;66439;50.106;10.996;2023-07-24T00:05:08;97953.58;;;20.88;48.49
77381;BME280;66439;50.106;10.996;2023-07-24T00:07:11;97955.79;;;20.86;48.57
77381;BME280;66439;50.106;10.996;2023-07-24T00:09:15;97961.25;;;20.84;48.50
77381;BME280;66439;50.106;10.996;2023-07-24T00:11:18;97959.20;;;20.81;48.62
77381;BME280;66439;50.106;10.996;2023-07-24T00:13:21;97962.10;;;20.78;48.70
77381;BME280;66439;50.106;10.996;2023-07-24T00:15:25;97966.05;;;20.75;48.77
77381;BME280;66439;50.106;10.996;2023-07-24T00:17:27;97970.14;;;20.71;48.73
77381;BME280;66439;50.106;10.996;2023-07-24T00:19:30;97972.88;;;20.68;48.98
77381;BME280;66439;50.106;10.996;2023-07-24T00:21:33;97969.96;;;20.65;49.07
77381;BME280;66439;50.106;10.996;2023-07-24T00:23:36;97971.53;;;20.61;49.30
77381;BME280;66439;50.106;10.996;2023-07-24T00:25:40;97977.66;;;20.57;49.31
77381;BME280;66439;50.106;10.996;2023-07-24T00:28:05;97975.41;;;20.50;49.45
77381;BME280;66439;50.106;10.996;2023-07-24T00:30:33;97974.79;;;20.44;49.37
77381;BME280;66439;50.106;10.996;2023-07-24T00:32:36;97970.94;;;20.40;49.32
77381;BME280;66439;50.106;10.996;2023-07-24T00:34:40;97970.33;;;20.36;49.46
77381;BME280;66439;50.106;10.996;2023-07-24T00:36:43;97970.22;;;20.35;49.31
77381;BME280;66439;50.106;10.996;2023-07-24T00:38:53;97974.04;;;20.33;49.26
77381;BME280;66439;50.106;10.996;2023-07-24T00:40:56;97975.06;;;20.30;49.30
77381;BME280;66439;50.106;10.996;2023-07-24T00:43:00;97978.77;;;20.26;49.36
77381;BME280;66439;50.106;10.996;2023-07-24T00:45:04;97983.88;;;20.22;49.56
77381;BME280;66439;50.106;10.996;2023-07-24T00:47:10;97984.93;;;20.18;49.58
77381;BME280;66439;50.106;10.996;2023-07-24T00:49:16;97987.84;;;20.16;49.61
77381;BME280;66439;50.106;10.996;2023-07-24T00:51:19;97987.51;;;20.13;49.57
77381;BME280;66439;50.106;10.996;2023-07-24T00:53:22;97982.90;;;20.09;49.76
77381;BME280;66439;50.106;10.996;2023-07-24T00:55:25;97982.45;;;20.07;49.75
77381;BME280;66439;50.106;10.996;2023-07-24T00:57:30;97982.92;;;20.04;49.71
77381;BME280;66439;50.106;10.996;2023-07-24T00:59:35;97978.21;;;20.01;49.86
77381;BME280;66439;50.106;10.996;2023-07-24T01:01:42;97974.80;;;19.98;49.85
77381;BME280;66439;50.106;10.996;2023-07-24T01:03:48;97969.48;;;19.94;49.95
77381;BME280;66439;50.106;10.996;2023-07-24T01:05:54;97963.11;;;19.89;50.08
77381;BME280;66439;50.106;10.996;2023-07-24T01:07:58;97960.38;;;19.85;50.34
77381;BME280;66439;50.106;10.996;2023-07-24T01:10:01;97954.33;;;19.82;50.52
77381;BME280;66439;50.106;10.996;2023-07-24T01:12:23;97949.52;;;19.79;50.59
77381;BME280;66439;50.106;10.996;2023-07-24T01:14:44;97946.27;;;19.79;50.66
77381;BME280;66439;50.106;10.996;2023-07-24T01:16:49;97943.79;;;19.77;50.80
77381;BME280;66439;50.106;10.996;2023-07-24T01:18:56;97938.39;;;19.77;50.84
77381;BME280;66439;50.106;10.996;2023-07-24T01:21:03;97935.25;;;19.77;50.93
77381;BME280;66439;50.106;10.996;2023-07-24T01:25:54;97936.27;;;19.73;51.03
77381;BME280;66439;50.106;10.996;2023-07-24T01:27:57;97933.65;;;19.70;50.72
77381;BME280;66439;50.106;10.996;2023-07-24T01:30:01;97935.50;;;19.70;50.96
77381;BME280;66439;50.106;10.996;2023-07-24T01:32:06;97934.78;;;19.69;50.79
77381;BME280;66439;50.106;10.996;2023-07-24T01:34:13;97925.55;;;19.69;50.88
77381;BME280;66439;50.106;10.996;2023-07-24T01:36:26;97918.16;;;19.68;50.77
77381;BME280;66439;50.106;10.996;2023-07-24T01:38:37;97916.65;;;19.67;50.59
77381;BME280;66439;50.106;10.996;2023-07-24T01:40:42;97912.66;;;19.66;50.87
77381;BME280;66439;50.106;10.996;2023-07-24T01:42:45;97908.98;;;19.64;50.76
77381;BME280;66439;50.106;10.996;2023-07-24T01:44:52;97915.94;;;19.63;50.74
77381;BME280;66439;50.106;10.996;2023-07-24T01:46:56;97913.64;;;19.61;50.71
77381;BME280;66439;50.106;10.996;2023-07-24T01:48:58;97910.33;;;19.60;50.83
77381;BME280;66439;50.106;10.996;2023-07-24T01:51:01;97912.25;;;19.58;50.70
77381;BME280;66439;50.106;10.996;2023-07-24T01:53:04;97907.73;;;19.59;50.66
77381;BME280;66439;50.106;10.996;2023-07-24T01:55:07;97907.14;;;19.59;50.83
77381;BME280;66439;50.106;10.996;2023-07-24T01:57:09;97905.27;;;19.60;50.87
77381;BME280;66439;50.106;10.996;2023-07-24T01:59:13;97906.17;;;19.61;50.62
77381;BME280;66439;50.106;10.996;2023-07-24T02:01:15;97904.13;;;19.61;50.50
77381;BME280;66439;50.106;10.996;2023-07-24T02:03:18;97905.33;;;19.61;50.47
77381;BME280;66439;50.106;10.996;2023-07-24T02:05:21;97904.63;;;19.61;50.69
77381;BME280;66439;50.106;10.996;2023-07-24T02:07:26;97904.70;;;19.62;50.48
77381;BME280;66439;50.106;10.996;2023-07-24T02:09:28;97902.88;;;19.62;50.47
77381;BME280;66439;50.106;10.996;2023-07-24T02:11:31;97901.92;;;19.64;50.57
77381;BME280;66439;50.106;10.996;2023-07-24T02:13:34;97901.05;;;19.64;50.32
77381;BME280;66439;50.106;10.996;2023-07-24T02:15:37;97895.83;;;19.64;50.46
77381;BME280;66439;50.106;10.996;2023-07-24T02:17:40;97889.98;;;19.65;50.53
77381;BME280;66439;50.106;10.996;2023-07-24T02:19:46;97886.02;;;19.63;50.55
77381;BME280;66439;50.106;10.996;2023-07-24T02:21:51;97884.79;;;19.62;50.62
77381;BME280;66439;50.106;10.996;2023-07-24T02:23:55;97884.39;;;19.59;50.73
77381;BME280;66439;50.106;10.996;2023-07-24T02:25:58;97881.73;;;19.56;50.54
77381;BME280;66439;50.106;10.996;2023-07-24T02:28:02;97873.58;;;19.54;50.82
77381;BME280;66439;50.106;10.996;2023-07-24T02:30:06;97873.63;;;19.53;50.86
77381;BME280;66439;50.106;10.996;2023-07-24T02:32:10;97877.19;;;19.53;50.87
77381;BME280;66439;50.106;10.996;2023-07-24T02:34:13;97874.85;;;19.50;50.75
77381;BME280;66439;50.106;10.996;2023-07-24T02:36:16;97877.47;;;19.47;50.99
77381;BME280;66439;50.106;10.996;2023-07-24T02:38:18;97876.91;;;19.43;51.24
77381;BME280;66439;50.106;10.996;2023-07-24T02:40:21;97875.34;;;19.42;51.13
77381;BME280;66439;50.106;10.996;2023-07-24T02:42:24;97871.67;;;19.40;51.48
77381;BME280;66439;50.106;10.996;2023-07-24T02:44:26;97872.84;;;19.39;51.46
77381;BME280;66439;50.106;10.996;2023-07-24T02:46:29;97875.53;;;19.39;51.63
77381;BME280;66439;50.106;10.996;2023-07-24T02:48:34;97873.38;;;19.36;51.85
77381;BME280;66439;50.106;10.996;2023-07-24T02:50:38;97874.16;;;19.34;51.91
77381;BME280;66439;50.106;10.996;2023-07-24T02:52:41;97876.75;;;19.33;52.16
77381;BME280;66439;50.106;10.996;2023-07-24T02:54:43;97878.56;;;19.32;52.35
77381;BME280;66439;50.106;10.996;2023-07-24T02:56:47;97876.56;;;19.31;52.49
77381;BME280;66439;50.106;10.996;2023-07-24T02:58:50;97872.25;;;19.30;52.56
77381;BME280;66439;50.106;10.996;2023-07-24T03:00:54;97867.55;;;19.29;52.73
77381;BME280;66439;50.106;10.996;2023-07-24T03:02:57;97869.40;;;19.28;53.04
77381;BME280;66439;50.106;10.996;2023-07-24T03:04:59;97867.71;;;19.28;53.03
77381;BME280;66439;50.106;10.996;2023-07-24T03:07:03;97867.48;;;19.27;53.22
77381;BME280;66439;50.106;10.996;2023-07-24T03:09:06;97866.14;;;19.26;53.34
77381;BME280;66439;50.106;10.996;2023-07-24T03:11:09;97863.17;;;19.25;53.58
77381;BME280;66439;50.106;10.996;2023-07-24T03:13:13;97862.31;;;19.26;53.67
77381;BME280;66439;50.106;10.996;2023-07-24T03:15:16;97861.98;;;19.27;53.82
77381;BME280;66439;50.106;10.996;2023-07-24T03:17:19;97866.48;;;19.28;53.86
77381;BME280;66439;50.106;10.996;2023-07-24T03:19:22;97869.75;;;19.27;54.02
77381;BME280;66439;50.106;10.996;2023-07-24T03:21:26;97862.09;;;19.25;54.13
77381;BME280;66439;50.106;10.996;2023-07-24T03:23:36;97860.58;;;19.24;54.37
77381;BME280;66439;50.106;10.996;2023-07-24T03:25:39;97868.00;;;19.23;54.40
77381;BME280;66439;50.106;10.996;2023-07-24T03:27:41;97872.08;;;19.20;54.63
77381;BME280;66439;50.106;10.996;2023-07-24T03:29:44;97870.13;;;19.18;54.73
77381;BME280;66439;50.106;10.996;2023-07-24T03:31:47;97872.88;;;19.18;54.99
77381;BME280;66439;50.106;10.996;2023-07-24T03:33:49;97874.28;;;19.18;55.14
77381;BME280;66439;50.106;10.996;2023-07-24T03:35:52;97876.41;;;19.16;55.29
77381;BME280;66439;50.106;10.996;2023-07-24T03:37:54;97870.42;;;19.15;55.41
77381;BME280;66439;50.106;10.996;2023-07-24T03:39:57;97860.20;;;19.14;55.65
77381;BME280;66439;50.106;10.996;2023-07-24T03:41:59;97856.35;;;19.12;55.57
77381;BME280;66439;50.106;10.996;2023-07-24T03:44:02;97857.35;;;19.10;55.86
77381;BME280;66439;50.106;10.996;2023-07-24T03:46:05;97856.64;;;19.07;56.13
77381;BME280;66439;50.106;10.996;2023-07-24T03:48:08;97855.40;;;19.06;56.12
77381;BME280;66439;50.106;10.996;2023-07-24T03:50:11;97858.61;;;19.04;56.32
77381;BME280;66439;50.106;10.996;2023-07-24T03:52:14;97861.30;;;19.02;56.63
77381;BME280;66439;50.106;10.996;2023-07-24T03:54:17;97862.58;;;19.01;56.93
77381;BME280;66439;50.106;10.996;2023-07-24T03:56:20;97866.60;;;19.01;56.89
77381;BME280;66439;50.106;10.996;2023-07-24T03:58:23;97866.77;;;19.00;57.30
77381;BME280;66439;50.106;10.996;2023-07-24T04:00:25;97861.70;;;18.99;57.48
77381;BME280;66439;50.106;10.996;2023-07-24T04:02:32;97858.48;;;18.99;57.97
77381;BME280;66439;50.106;10.996;2023-07-24T04:04:35;97849.80;;;19.00;57.82
77381;BME280;66439;50.106;10.996;2023-07-24T04:06:38;97842.77;;;19.04;57.96
77381;BME280;66439;50.106;10.996;2023-07-24T04:08:41;97842.64;;;19.09;57.92
77381;BME280;66439;50.106;10.996;2023-07-24T04:10:44;97843.98;;;19.15;57.79
77381;BME280;66439;50.106;10.996;2023-07-24T04:12:47;97836.35;;;19.22;57.60
77381;BME280;66439;50.106;10.996;2023-07-24T04:14:49;97829.46;;;19.29;57.51
77381;BME280;66439;50.106;10.996;2023-07-24T04:17:02;97823.27;;;19.34;57.27
77381;BME280;66439;50.106;10.996;2023-07-24T04:19:22;97821.25;;;19.39;57.44
77381;BME280;66439;50.106;10.996;2023-07-24T04:21:25;97817.77;;;19.41;57.87
77381;BME280;66439;50.106;10.996;2023-07-24T04:23:28;97813.92;;;19.43;57.95
77381;BME280;66439;50.106;10.996;2023-07-24T04:25:32;97814.58;;;19.48;57.87
77381;BME280;66439;50.106;10.996;2023-07-24T04:27:34;97817.17;;;19.52;57.83
77381;BME280;66439;50.106;10.996;2023-07-24T04:29:37;97812.08;;;19.56;57.97
77381;BME280;66439;50.106;10.996;2023-07-24T04:31:39;97813.85;;;19.58;57.89
77381;BME280;66439;50.106;10.996;2023-07-24T04:33:42;97815.06;;;19.61;57.92
77381;BME280;66439;50.106;10.996;2023-07-24T04:35:48;97815.61;;;19.62;58.30
77381;BME280;66439;50.106;10.996;2023-07-24T04:37:51;97813.59;;;19.63;58.25
77381;BME280;66439;50.106;10.996;2023-07-24T04:39:53;97814.83;;;19.65;58.34
77381;BME280;66439;50.106;10.996;2023-07-24T04:41:56;97811.92;;;19.65;58.40
77381;BME280;66439;50.106;10.996;2023-07-24T04:43:58;97814.83;;;19.65;58.36
77381;BME280;66439;50.106;10.996;2023-07-24T04:46:01;97817.95;;;19.64;58.51
77381;BME280;66439;50.106;10.996;2023-07-24T04:48:04;97820.13;;;19.60;58.57
77381;BME280;66439;50.106;10.996;2023-07-24T04:50:09;97824.15;;;19.58;58.81
77381;BME280;66439;50.106;10.996;2023-07-24T04:52:12;97823.34;;;19.57;58.90
77381;BME280;66439;50.106;10.996;2023-07-24T04:54:14;97824.91;;;19.59;58.77
77381;BME280;66439;50.106;10.996;2023-07-24T04:56:17;97828.32;;;19.61;58.79
77381;BME280;66439;50.106;10.996;2023-07-24T04:58:19;97829.34;;;19.63;58.78
77381;BME280;66439;50.106;10.996;2023-07-24T05:00:22;97835.70;;;19.65;58.76
77381;BME280;66439;50.106;10.996;2023-07-24T05:02:25;97833.66;;;19.66;58.86
77381;BME280;66439;50.106;10.996;2023-07-24T05:04:28;97829.61;;;19.69;58.94
77381;BME280;66439;50.106;10.996;2023-07-24T05:06:30;97825.44;;;19.71;58.91
77381;BME280;66439;50.106;10.996;2023-07-24T05:08:33;97826.79;;;19.73;58.74
77381;BME280;66439;50.106;10.996;2023-07-24T05:10:36;97832.46;;;19.75;59.11
77381;BME280;66439;50.106;10.996;2023-07-24T05:12:42;97832.80;;;19.77;58.93
77381;BME280;66439;50.106;10.996;2023-07-24T05:14:44;97837.17;;;19.80;58.99
77381;BME280;66439;50.106;10.996;2023-07-24T05:16:48;97835.93;;;19.83;58.95
77381;BME280;66439;50.106;10.996;2023-07-24T05:18:51;97825.10;;;19.87;58.82
77381;BME280;66439;50.106;10.996;2023-07-24T05:20:57;97831.17;;;19.93;58.80
77381;BME280;66439;50.106;10.996;2023-07-24T05:23:01;97832.06;;;20.02;58.66
77381;BME280;66439;50.106;10.996;2023-07-24T05:25:03;97835.10;;;20.09;58.88
77381;BME280;66439;50.106;10.996;2023-07-24T05:27:06;97826.64;;;20.14;58.85
77381;BME280;66439;50.106;10.996;2023-07-24T05:29:09;97793.66;;;20.19;58.72
77381;BME280;66439;50.106;10.996;2023-07-24T05:31:11;97781.86;;;20.24;58.70
77381;BME280;66439;50.106;10.996;2023-07-24T05:33:14;97793.21;;;20.27;58.63
77381;BME280;66439;50.106;10.996;2023-07-24T05:35:16;97801.30;;;20.31;58.55
77381;BME280;66439;50.106;10.996;2023-07-24T05:37:19;97809.02;;;20.35;58.46
77381;BME280;66439;50.106;10.996;2023-07-24T05:39:24;97809.63;;;20.38;58.39
77381;BME280;66439;50.106;10.996;2023-07-24T05:41:28;97805.90;;;20.43;58.20
77381;BME280;66439;50.106;10.996;2023-07-24T05:43:31;97798.84;;;20.48;57.79
77381;BME280;66439;50.106;10.996;2023-07-24T05:45:34;97796.27;;;20.55;57.56
77381;BME280;66439;50.106;10.996;2023-07-24T05:47:37;97787.68;;;20.63;57.38
77381;BME280;66439;50.106;10.996;2023-07-24T05:49:40;97777.27;;;20.68;57.26
77381;BME280;66439;50.106;10.996;2023-07-24T05:51:44;97777.58;;;20.74;56.89
77381;BME280;66439;50.106;10.996;2023-07-24T05:53:46;97770.39;;;20.80;57.34
77381;BME280;66439;50.106;10.996;2023-07-24T05:55:59;97766.50;;;20.83;57.23
77381;BME280;66439;50.106;10.996;2023-07-24T05:58:05;97770.05;;;20.87;56.68
77381;BME280;66439;50.106;10.996;2023-07-24T06:00:08;97772.31;;;20.91;57.03
77381;BME280;66439;50.106;10.996;2023-07-24T06:02:20;97767.55;;;20.94;57.19
77381;BME280;66439;50.106;10.996;2023-07-24T06:04:25;97768.15;;;20.95;56.92
77381;BME280;66439;50.106;10.996;2023-07-24T06:06:28;97765.05;;;20.98;57.08
77381;BME280;66439;50.106;10.996;2023-07-24T06:08:31;97760.30;;;21.01;57.28
77381;BME280;66439;50.106;10.996;2023-07-24T06:10:34;97767.97;;;21.02;57.10
77381;BME280;66439;50.106;10.996;2023-07-24T06:12:37;97772.51;;;21.04;56.67
77381;BME280;66439;50.106;10.996;2023-07-24T06:14:39;97775.31;;;21.07;56.53
77381;BME280;66439;50.106;10.996;2023-07-24T06:16:42;97770.27;;;21.14;55.68
77381;BME280;66439;50.106;10.996;2023-07-24T06:18:45;97769.55;;;21.22;55.45
77381;BME280;66439;50.106;10.996;2023-07-24T06:20:52;97763.30;;;21.31;55.67
77381;BME280;66439;50.106;10.996;2023-07-24T06:22:54;97763.95;;;21.39;55.45
77381;BME280;66439;50.106;10.996;2023-07-24T06:24:57;97767.39;;;21.45;54.76
77381;BME280;66439;50.106;10.996;2023-07-24T06:27:00;97757.73;;;21.51;54.79
77381;BME280;66439;50.106;10.996;2023-07-24T06:29:02;97750.89;;;21.56;55.12
77381;BME280;66439;50.106;10.996;2023-07-24T06:31:05;97742.52;;;21.61;54.43
77381;BME280;66439;50.106;10.996;2023-07-24T06:33:08;97747.27;;;21.67;55.20
77381;BME280;66439;50.106;10.996;2023-07-24T06:35:11;97750.06;;;21.71;55.06
77381;BME280;66439;50.106;10.996;2023-07-24T06:37:15;97753.13;;;21.73;55.27
77381;BME280;66439;50.106;10.996;2023-07-24T06:39:24;97749.39;;;21.75;55.21
77381;BME280;66439;50.106;10.996;2023-07-24T06:41:27;97754.23;;;21.77;55.27
77381;BME280;66439;50.106;10.996;2023-07-24T06:43:30;97753.40;;;21.81;55.09
77381;BME280;66439;50.106;10.996;2023-07-24T06:45:33;97751.50;;;21.84;54.62
77381;BME280;66439;50.106;10.996;2023-07-24T06:47:38;97751.42;;;21.88;54.05
77381;BME280;66439;50.106;10.996;2023-07-24T06:49:42;97754.65;;;21.91;54.71
77381;BME280;66439;50.106;10.996;2023-07-24T06:51:44;97753.77;;;21.93;54.73
77381;BME280;66439;50.106;10.996;2023-07-24T06:53:47;97753.65;;;21.95;54.79
77381;BME280;66439;50.106;10.996;2023-07-24T06:55:50;97748.83;;;21.96;54.33
77381;BME280;66439;50.106;10.996;2023-07-24T06:57:53;97750.77;;;21.99;53.98
77381;BME280;66439;50.106;10.996;2023-07-24T06:59:55;97745.44;;;22.01;54.68
77381;BME280;66439;50.106;10.996;2023-07-24T07:01:58;97744.02;;;22.05;55.02
77381;BME280;66439;50.106;10.996;2023-07-24T07:04:00;97748.90;;;22.09;55.09
77381;BME280;66439;50.106;10.996;2023-07-24T07:06:03;97753.38;;;22.15;54.99
77381;BME280;66439;50.106;10.996;2023-07-24T07:08:06;97756.34;;;22.18;55.18
77381;BME280;66439;50.106;10.996;2023-07-24T07:10:21;97767.32;;;22.19;54.48
77381;BME280;66439;50.106;10.996;2023-07-24T07:12:24;97766.02;;;22.19;54.44
77381;BME280;66439;50.106;10.996;2023-07-24T07:14:26;97771.71;;;22.19;54.08
77381;BME280;66439;50.106;10.996;2023-07-24T07:16:29;97775.89;;;22.18;53.87
77381;BME280;66439;50.106;10.996;2023-07-24T07:18:31;97770.44;;;22.14;54.22
77381;BME280;66439;50.106;10.996;2023-07-24T07:20:35;97763.66;;;22.12;54.38
77381;BME280;66439;50.106;10.996;2023-07-24T07:22:37;97753.98;;;22.10;54.58
77381;BME280;66439;50.106;10.996;2023-07-24T07:24:42;97758.85;;;22.10;54.83
77381;BME280;66439;50.106;10.996;2023-07-24T07:26:46;97762.34;;;22.09;55.06
77381;BME280;66439;50.106;10.996;2023-07-24T07:28:49;97762.12;;;22.09;55.41
77381;BME280;66439;50.106;10.996;2023-07-24T07:30:53;97752.30;;;22.11;55.19
77381;BME280;66439;50.106;10.996;2023-07-24T07:32:56;97742.83;;;22.15;54.99
77381;BME280;66439;50.106;10.996;2023-07-24T07:34:59;97740.30;;;22.20;54.90
77381;BME280;66439;50.106;10.996;2023-07-24T07:37:03;97738.58;;;22.25;53.77
77381;BME280;66439;50.106;10.996;2023-07-24T07:39:05;97737.95;;;22.31;53.15
77381;BME280;66439;50.106;10.996;2023-07-24T07:41:08;97726.48;;;22.36;53.18
77381;BME280;66439;50.106;10.996;2023-07-24T07:43:11;97726.92;;;22.41;53.16
77381;BME280;66439;50.106;10.996;2023-07-24T07:45:16;97722.88;;;22.45;53.06
77381;BME280;66439;50.106;10.996;2023-07-24T07:47:18;97720.29;;;22.50;52.73
77381;BME280;66439;50.106;10.996;2023-07-24T07:49:25;97721.39;;;22.54;52.24
77381;BME280;66439;50.106;10.996;2023-07-24T07:51:36;97726.56;;;22.56;51.68
77381;BME280;66439;50.106;10.996;2023-07-24T07:53:38;97722.61;;;22.56;50.99
77381;BME280;66439;50.106;10.996;2023-07-24T07:55:41;97719.73;;;22.57;50.58
77381;BME280;66439;50.106;10.996;2023-07-24T07:57:43;97715.11;;;22.60;50.73
77381;BME280;66439;50.106;10.996;2023-07-24T07:59:46;97714.93;;;22.62;50.97
77381;BME280;66439;50.106;10.996;2023-07-24T08:01:49;97713.77;;;22.64;50.93
77381;BME280;66439;50.106;10.996;2023-07-24T08:03:51;97709.94;;;22.67;50.70
77381;BME280;66439;50.106;10.996;2023-07-24T08:05:57;97712.02;;;22.71;50.51
77381;BME280;66439;50.106;10.996;2023-07-24T08:08:00;97712.46;;;22.75;50.30
77381;BME280;66439;50.106;10.996;2023-07-24T08:10:07;97710.32;;;22.78;50.07
77381;BME280;66439;50.106;10.996;2023-07-24T08:12:15;97712.79;;;22.80;50.21
77381;BME280;66439;50.106;10.996;2023-07-24T08:14:21;97718.97;;;22.79;49.78
77381;BME280;66439;50.106;10.996;2023-07-24T08:16:25;97719.61;;;22.80;49.62
77381;BME280;66439;50.106;10.996;2023-07-24T08:18:28;97719.61;;;22.80;49.63
77381;BME280;66439;50.106;10.996;2023-07-24T08:20:32;97719.07;;;22.80;49.66
77381;BME280;66439;50.106;10.996;2023-07-24T08:22:35;97728.45;;;22.80;49.26
77381;BME280;66439;50.106;10.996;2023-07-24T08:24:38;97725.15;;;22.79;49.38
77381;BME280;66439;50.106;10.996;2023-07-24T08:26:43;97725.31;;;22.79;49.38
77381;BME280;66439;50.106;10.996;2023-07-24T08:28:46;97727.19;;;22.80;49.51
77381;BME280;66439;50.106;10.996;2023-07-24T08:30:58;97727.26;;;22.81;49.60
77381;BME280;66439;50.106;10.996;2023-07-24T08:33:10;97725.80;;;22.81;49.65
77381;BME280;66439;50.106;10.996;2023-07-24T08:35:15;97722.92;;;22.79;49.75
77381;BME280;66439;50.106;10.996;2023-07-24T08:37:18;97715.44;;;22.80;50.15
77381;BME280;66439;50.106;10.996;2023-07-24T08:39:21;97713.01;;;22.80;50.06
77381;BME280;66439;50.106;10.996;2023-07-24T08:41:24;97709.20;;;22.80;50.47
77381;BME280;66439;50.106;10.996;2023-07-24T08:43:33;97710.35;;;22.80;50.41
77381;BME280;66439;50.106;10.996;2023-07-24T08:45:45;97721.98;;;22.78;50.80
77381;BME280;66439;50.106;10.996;2023-07-24T08:47:50;97727.63;;;22.77;50.65
77381;BME280;66439;50.106;10.996;2023-07-24T08:49:53;97729.09;;;22.76;50.74
77381;BME280;66439;50.106;10.996;2023-07-24T08:52:00;97742.55;;;22.74;51.13
77381;BME280;66439;50.106;10.996;2023-07-24T08:54:04;97741.09;;;22.74;51.66
77381;BME280;66439;50.106;10.996;2023-07-24T08:56:09;97740.51;;;22.74;51.63
77381;BME280;66439;50.106;10.996;2023-07-24T08:58:11;97739.58;;;22.74;51.81
77381;BME280;66439;50.106;10.996;2023-07-24T09:00:18;97745.23;;;22.77;52.22
77381;BME280;66439;50.106;10.996;2023-07-24T09:02:22;97745.45;;;22.82;52.69
77381;BME280;66439;50.106;10.996;2023-07-24T09:04:25;97741.24;;;22.87;53.00
77381;BME280;66439;50.106;10.996;2023-07-24T09:06:28;97730.05;;;22.89;52.57
77381;BME280;66439;50.106;10.996;2023-07-24T09:08:40;97722.50;;;22.94;52.42
77381;BME280;66439;50.106;10.996;2023-07-24T09:10:50;97714.20;;;22.99;52.50
77381;BME280;66439;50.106;10.996;2023-07-24T09:12:52;97708.65;;;23.06;52.65
77381;BME280;66439;50.106;10.996;2023-07-24T09:15:05;97704.27;;;23.13;52.49
77381;BME280;66439;50.106;10.996;2023-07-24T09:17:10;97698.02;;;23.18;51.99
77381;BME280;66439;50.106;10.996;2023-07-24T09:19:17;97695.96;;;23.20;52.38
77381;BME280;66439;50.106;10.996;2023-07-24T09:21:30;97715.64;;;23.20;52.48
77381;BME280;66439;50.106;10.996;2023-07-24T09:23:33;97730.05;;;23.16;52.68
77381;BME280;66439;50.106;10.996;2023-07-24T09:25:38;97713.94;;;23.13;52.42
77381;BME280;66439;50.106;10.996;2023-07-24T09:27:41;97704.24;;;23.12;51.96
77381;BME280;66439;50.106;10.996;2023-07-24T09:29:45;97697.29;;;23.13;51.49
77381;BME280;66439;50.106;10.996;2023-07-24T09:31:48;97697.77;;;23.13;51.85
77381;BME280;66439;50.106;10.996;2023-07-24T09:33:52;97696.52;;;23.13;51.73
77381;BME280;66439;50.106;10.996;2023-07-24T09:36:00;97704.08;;;23.12;52.12
77381;BME280;66439;50.106;10.996;2023-07-24T09:38:06;97699.52;;;23.08;52.21
77381;BME280;66439;50.106;10.996;2023-07-24T09:40:10;97720.45;;;23.02;52.88
77381;BME280;66439;50.106;10.996;2023-07-24T09:42:13;97733.58;;;22.90;55.08
77381;BME280;66439;50.106;10.996;2023-07-24T09:44:16;97750.24;;;22.75;56.88
77381;BME280;66439;50.106;10.996;2023-07-24T09:46:18;97786.00;;;22.60;58.10
77381;BME280;66439;50.106;10.996;2023-07-24T09:48:23;97781.92;;;22.44;58.65
77381;BME280;66439;50.106;10.996;2023-07-24T09:50:29;97783.15;;;22.33;58.66
77381;BME280;66439;50.106;10.996;2023-07-24T09:52:36;97772.17;;;22.24;58.46
77381;BME280;66439;50.106;10.996;2023-07-24T09:54:59;97774.38;;;22.15;59.33
77381;BME280;66439;50.106;10.996;2023-07-24T09:57:08;97774.60;;;22.03;59.69
77381;BME280;66439;50.106;10.996;2023-07-24T09:59:26;97769.33;;;21.99;59.16
77381;BME280;66439;50.106;10.996;2023-07-24T10:01:31;97762.09;;;21.95;59.40
77381;BME280;66439;50.106;10.996;2023-07-24T10:03:38;97744.42;;;21.91;59.59
77381;BME280;66439;50.106;10.996;2023-07-24T10:05:46;97739.35;;;21.89;59.85
77381;BME280;66439;50.106;10.996;2023-07-24T10:07:50;97728.39;;;21.85;60.24
77381;BME280;66439;50.106;10.996;2023-07-24T10:09:55;97721.52;;;21.84;60.43
77381;BME280;66439;50.106;10.996;2023-07-24T10:12:00;97714.48;;;21.87;60.33
77381;BME280;66439;50.106;10.996;2023-07-24T10:14:03;97698.23;;;21.88;60.58
77381;BME280;66439;50.106;10.996;2023-07-24T10:16:08;97693.91;;;21.89;60.94
77381;BME280;66439;50.106;10.996;2023-07-24T10:18:12;97690.15;;;21.91;61.25
77381;BME280;66439;50.106;10.996;2023-07-24T10:20:16;97686.08;;;21.93;61.74
77381;BME280;66439;50.106;10.996;2023-07-24T10:22:20;97686.20;;;21.97;61.80
77381;BME280;66439;50.106;10.996;2023-07-24T10:24:29;97683.09;;;22.01;61.86
77381;BME280;66439;50.106;10.996;2023-07-24T10:26:43;97679.98;;;22.03;62.30
77381;BME280;66439;50.106;10.996;2023-07-24T10:28:47;97680.98;;;22.07;62.11
77381;BME280;66439;50.106;10.996;2023-07-24T10:30:55;97678.36;;;22.13;61.70
77381;BME280;66439;50.106;10.996;2023-07-24T10:33:10;97682.59;;;22.21;61.13
77381;BME280;66439;50.106;10.996;2023-07-24T10:35:14;97684.50;;;22.30;60.70
77381;BME280;66439;50.106;10.996;2023-07-24T10:37:18;97691.27;;;22.38;61.07
77381;BME280;66439;50.106;10.996;2023-07-24T10:39:21;97697.48;;;22.40;61.12
77381;BME280;66439;50.106;10.996;2023-07-24T10:41:34;97695.23;;;22.43;61.16
77381;BME280;66439;50.106;10.996;2023-07-24T10:43:45;97686.88;;;22.44;60.87
77381;BME280;66439;50.106;10.996;2023-07-24T10:45:52;97695.80;;;22.45;60.54
77381;BME280;66439;50.106;10.996;2023-07-24T10:47:57;97690.48;;;22.46;60.43
77381;BME280;66439;50.106;10.996;2023-07-24T10:50:01;97694.92;;;22.45;61.11
77381;BME280;66439;50.106;10.996;2023-07-24T10:52:05;97694.33;;;22.45;60.93
77381;BME280;66439;50.106;10.996;2023-07-24T10:54:07;97690.62;;;22.50;60.68